Terminal Aerodrome Forecast
Issued by NWS

Home | Current Version | Previous Version | Text Only | Print | Product List | Glossary On
Versions: 1 2 3 4 5 6 7 8 9 10 11 12 13 14 15 16
000
FTUS43 KDLH 251700
TAFHIB
TAF
KHIB 251738Z 2518/2618 06010G17KT P6SM -RA OVC045
      TEMPO 2518/2520 3SM -RA BR OVC015
     FM252000 05012G20KT 2SM BR OVC007
      TEMPO 2520/2524 1SM -RA BR OVC003
     FM260200 35006KT 1SM -SHRA BR OVC007
     FM261400 VRB03KT P6SM BKN025=

USA.gov is the U.S. government's official web portal to all federal, state and local government web resources and services.